createdAt,value
2022-09-15T00:01:42.564Z,100400.08
2022-09-15T00:04:11.379Z,100397.38
2022-09-15T00:06:40.103Z,100391.84
2022-09-15T00:09:09.489Z,100386.13
2022-09-15T00:11:39.451Z,100383.57
2022-09-15T00:14:09.192Z,100376.61
2022-09-15T00:16:38.467Z,100371.30
2022-09-15T00:19:07.692Z,100366.48
2022-09-15T00:21:40.266Z,100366.81
2022-09-15T00:24:10.425Z,100369.43
2022-09-15T00:26:39.280Z,100362.66
2022-09-15T00:29:07.967Z,100353.94
2022-09-15T00:31:36.758Z,100349.43
2022-09-15T00:34:07.389Z,100347.20
2022-09-15T00:36:36.180Z,100344.07
2022-09-15T00:39:05.451Z,100343.58
2022-09-15T00:41:34.474Z,100343.95
2022-09-15T00:44:16.677Z,100340.30
2022-09-15T00:47:09.348Z,100340.88
2022-09-15T00:49:41.675Z,100338.63
2022-09-15T00:52:16.329Z,100337.41
2022-09-15T00:55:28.819Z,100335.98
2022-09-15T00:58:04.762Z,100333.53
2022-09-15T01:00:34.816Z,100326.10
2022-09-15T01:03:04.929Z,100324.80
2022-09-15T01:05:38.699Z,100325.46
2022-09-15T01:08:16.952Z,100319.79
2022-09-15T01:10:47.063Z,100314.84
2022-09-15T01:13:16.062Z,100306.48
2022-09-15T01:15:58.611Z,100299.91
2022-09-15T01:18:33.638Z,100298.32
2022-09-15T01:21:24.934Z,100299.91
2022-09-15T01:24:20.339Z,100304.64
2022-09-15T01:27:30.479Z,100303.73
2022-09-15T01:30:35.950Z,100307.13
2022-09-15T01:33:28.801Z,100299.40
2022-09-15T01:36:05.778Z,100295.95
2022-09-15T01:39:01.392Z,100294.48
2022-09-15T01:41:50.766Z,100295.88
2022-09-15T01:44:25.227Z,100285.48
2022-09-15T01:46:58.498Z,100282.05
2022-09-15T01:49:31.416Z,100276.75
2022-09-15T01:52:00.775Z,100276.06
2022-09-15T01:54:34.371Z,100274.12
2022-09-15T01:57:03.467Z,100275.15
2022-09-15T01:59:32.271Z,100275.83
2022-09-15T02:02:12.886Z,100280.38
2022-09-15T02:04:53.834Z,100285.66
2022-09-15T02:07:51.974Z,100291.64
2022-09-15T02:10:31.119Z,100302.19
2022-09-15T02:13:27.035Z,100305.11
2022-09-15T02:16:00.351Z,100308.48
2022-09-15T02:18:42.209Z,100310.13
2022-09-15T02:21:19.398Z,100306.48
2022-09-15T02:23:55.490Z,100309.03
2022-09-15T02:26:28.635Z,100313.85
2022-09-15T02:29:00.803Z,100305.83
2022-09-15T02:31:32.355Z,100295.13
2022-09-15T02:34:07.216Z,100282.63
2022-09-15T02:36:36.569Z,100271.26
2022-09-15T02:39:10.281Z,100266.19
2022-09-15T02:41:39.622Z,100270.48
2022-09-15T02:44:10.072Z,100270.91
2022-09-15T02:46:40.025Z,100264.60
2022-09-15T02:49:08.855Z,100256.87
2022-09-15T02:51:37.448Z,100248.96
2022-09-15T02:54:06.533Z,100250.40
2022-09-15T02:56:35.331Z,100252.92
2022-09-15T02:59:04.115Z,100255.97
2022-09-15T03:01:35.222Z,100258.33
2022-09-15T03:04:05.376Z,100257.13
2022-09-15T03:06:37.093Z,100255.38
2022-09-15T03:09:08.318Z,100262.69
2022-09-15T03:11:37.939Z,100267.14
2022-09-15T03:14:08.499Z,100267.90
2022-09-15T03:16:37.215Z,100268.16
2022-09-15T03:19:06.714Z,100262.39
2022-09-15T03:21:36.240Z,100254.69
2022-09-15T03:24:05.112Z,100251.38
2022-09-15T03:26:33.905Z,100247.53
2022-09-15T03:29:02.632Z,100244.58
2022-09-15T03:31:31.450Z,100247.27
2022-09-15T03:34:00.268Z,100243.81
2022-09-15T03:36:29.058Z,100245.79
2022-09-15T03:38:59.282Z,100243.20
2022-09-15T03:41:28.272Z,100234.98
2022-09-15T03:43:57.082Z,100237.66
2022-09-15T03:46:25.853Z,100235.23
2022-09-15T03:48:54.338Z,100235.45
2022-09-15T03:51:23.026Z,100240.95
2022-09-15T03:53:51.805Z,100248.02
2022-09-15T03:56:25.419Z,100249.27
2022-09-15T03:58:54.814Z,100248.29
2022-09-15T04:01:24.247Z,100245.86
2022-09-15T04:03:53.187Z,100247.96
2022-09-15T04:06:23.546Z,100247.97
2022-09-15T04:08:53.017Z,100242.69
2022-09-15T04:11:23.058Z,100234.71
2022-09-15T04:13:53.487Z,100239.20
2022-09-15T04:16:24.832Z,100240.86
2022-09-15T04:18:55.645Z,100232.67
2022-09-15T04:21:27.382Z,100226.73
2022-09-15T04:23:56.222Z,100220.59
2022-09-15T04:26:28.770Z,100218.62
2022-09-15T04:29:03.031Z,100218.77
2022-09-15T04:31:34.051Z,100227.41
2022-09-15T04:34:03.074Z,100225.86
2022-09-15T04:36:32.262Z,100224.27
2022-09-15T04:39:01.037Z,100223.20
2022-09-15T04:41:29.836Z,100223.08
2022-09-15T04:43:58.924Z,100224.48
2022-09-15T04:46:27.646Z,100219.67
2022-09-15T04:48:57.321Z,100222.45
2022-09-15T04:51:27.497Z,100221.95
2022-09-15T04:53:56.329Z,100228.73
2022-09-15T04:56:26.804Z,100222.89
2022-09-15T04:59:03.813Z,100219.97
2022-09-15T05:01:35.601Z,100214.23
2022-09-15T05:04:05.409Z,100215.70
2022-09-15T05:06:35.535Z,100213.27
2022-09-15T05:09:10.053Z,100213.88
2022-09-15T05:11:39.267Z,100221.77
2022-09-15T05:14:09.886Z,100230.52
2022-09-15T05:16:40.453Z,100233.94
2022-09-15T05:19:11.361Z,100237.89
2022-09-15T05:21:40.148Z,100237.56
2022-09-15T05:24:09.856Z,100233.27
2022-09-15T05:26:38.338Z,100234.80
2022-09-15T05:29:07.026Z,100233.30
2022-09-15T05:31:35.631Z,100226.70
2022-09-15T05:34:06.338Z,100221.56
2022-09-15T05:36:34.933Z,100212.01
2022-09-15T05:39:04.020Z,100213.85
2022-09-15T05:41:33.426Z,100211.92
2022-09-15T05:44:02.901Z,100208.16
2022-09-15T05:46:31.788Z,100209.53
2022-09-15T05:49:00.412Z,100205.79
2022-09-15T05:51:30.613Z,100199.48
2022-09-15T05:53:59.624Z,100193.47
2022-09-15T05:56:28.315Z,100190.79
2022-09-15T05:58:57.681Z,100191.36
2022-09-15T06:01:30.558Z,100186.66
2022-09-15T06:03:59.796Z,100179.96
2022-09-15T06:06:31.157Z,100179.33
2022-09-15T06:09:02.085Z,100177.55
2022-09-15T06:11:34.118Z,100177.34
2022-09-15T06:14:04.339Z,100178.54
2022-09-15T06:16:35.179Z,100182.60
2022-09-15T06:19:04.503Z,100185.93
2022-09-15T06:21:33.812Z,100190.15
2022-09-15T06:24:06.270Z,100196.67
2022-09-15T06:26:35.431Z,100195.91
2022-09-15T06:29:05.756Z,100195.11
2022-09-15T06:31:36.210Z,100191.41
2022-09-15T06:34:05.642Z,100197.27
2022-09-15T06:36:36.889Z,100198.86
2022-09-15T06:39:05.777Z,100196.02
2022-09-15T06:41:58.403Z,100193.85
2022-09-15T06:44:23.838Z,100185.68
2022-09-15T06:46:52.628Z,100188.19
2022-09-15T06:49:22.233Z,100187.35
2022-09-15T06:51:50.819Z,100177.27
2022-09-15T06:54:19.712Z,100176.60
2022-09-15T06:56:48.500Z,100173.36
2022-09-15T06:59:17.696Z,100165.23
2022-09-15T07:01:55.988Z,100164.19
2022-09-15T07:04:24.804Z,100173.58
2022-09-15T07:06:53.589Z,100178.09
2022-09-15T07:09:22.480Z,100179.02
2022-09-15T07:11:51.165Z,100181.45
2022-09-15T07:14:19.869Z,100179.36
2022-09-15T07:16:48.515Z,100182.61
2022-09-15T07:19:17.253Z,100189.29
2022-09-15T07:21:45.776Z,100188.05
2022-09-15T07:24:14.907Z,100179.48
2022-09-15T07:26:43.802Z,100172.02
2022-09-15T07:29:12.588Z,100168.52
2022-09-15T07:31:41.258Z,100168.99
2022-09-15T07:34:10.268Z,100169.48
2022-09-15T07:36:38.952Z,100168.44
2022-09-15T07:39:07.749Z,100164.88
2022-09-15T07:41:36.739Z,100165.13
2022-09-15T07:44:08.391Z,100167.36
2022-09-15T07:46:37.082Z,100161.34
2022-09-15T07:49:07.097Z,100147.81
2022-09-15T07:51:35.886Z,100141.57
2022-09-15T07:54:04.676Z,100138.48
2022-09-15T07:56:33.679Z,100135.83
2022-09-15T07:59:02.398Z,100139.46
2022-09-15T08:01:31.234Z,100140.59
2022-09-15T08:03:59.930Z,100149.28
2022-09-15T08:06:29.028Z,100152.26
2022-09-15T08:09:00.633Z,100160.90
2022-09-15T08:11:30.296Z,100164.27
2022-09-15T08:14:02.649Z,100157.33
2022-09-15T08:16:32.240Z,100164.66
2022-09-15T08:19:02.394Z,100164.58
2022-09-15T08:21:31.143Z,100161.92
2022-09-15T08:24:01.604Z,100159.97
2022-09-15T08:26:31.184Z,100155.61
2022-09-15T08:29:01.216Z,100149.29
2022-09-15T08:31:30.219Z,100148.12
2022-09-15T08:33:59.122Z,100148.13
2022-09-15T08:36:28.423Z,100150.13
2022-09-15T08:38:57.220Z,100152.06
2022-09-15T08:41:44.742Z,100144.17
2022-09-15T08:44:34.933Z,100143.46
2022-09-15T08:47:19.902Z,100143.36
2022-09-15T08:49:57.598Z,100148.41
2022-09-15T08:52:33.569Z,100157.03
2022-09-15T08:55:07.536Z,100151.64
2022-09-15T08:57:36.561Z,100152.17
2022-09-15T09:00:07.253Z,100143.48
2022-09-15T09:02:41.471Z,100140.02
2022-09-15T09:05:49.519Z,100139.60
2022-09-15T09:08:52.002Z,100136.23
2022-09-15T09:11:40.860Z,100130.48
2022-09-15T09:14:43.651Z,100121.09
2022-09-15T09:17:56.889Z,100107.50
2022-09-15T09:20:39.902Z,100095.77
2022-09-15T09:23:14.958Z,100087.10
2022-09-15T09:25:45.024Z,100084.44
2022-09-15T09:28:32.310Z,100085.97
2022-09-15T09:31:08.221Z,100080.36
2022-09-15T09:33:47.472Z,100080.60
2022-09-15T09:36:22.296Z,100079.55
2022-09-15T09:38:51.598Z,100077.45
2022-09-15T09:41:25.607Z,100075.41
2022-09-15T09:43:56.410Z,100078.98
2022-09-15T09:46:25.079Z,100082.88
2022-09-15T09:49:01.464Z,100083.98
2022-09-15T09:51:35.320Z,100082.02
2022-09-15T09:54:12.849Z,100078.19
2022-09-15T09:56:42.305Z,100076.13
2022-09-15T09:59:40.278Z,100073.34
2022-09-15T10:02:12.044Z,100070.46
2022-09-15T10:04:43.466Z,100066.79
2022-09-15T10:07:14.796Z,100065.66
2022-09-15T10:09:53.217Z,100057.50
2022-09-15T10:12:42.088Z,100048.34
2022-09-15T10:15:24.314Z,100048.42
2022-09-15T10:17:54.638Z,100051.89
2022-09-15T10:20:36.022Z,100060.55
2022-09-15T10:23:25.805Z,100061.94
2022-09-15T10:26:00.098Z,100058.17
2022-09-15T10:28:29.829Z,100058.67
2022-09-15T10:31:03.434Z,100054.39
2022-09-15T10:33:37.920Z,100053.02
2022-09-15T10:36:11.303Z,100053.70
2022-09-15T10:38:49.230Z,100050.96
2022-09-15T10:41:28.801Z,100047.64
2022-09-15T10:44:23.189Z,100046.33
2022-09-15T10:47:22.806Z,100049.33
2022-09-15T10:50:21.899Z,100044.05
2022-09-15T10:53:07.179Z,100037.72
2022-09-15T10:55:51.558Z,100032.95
2022-09-15T10:58:31.331Z,100028.77
2022-09-15T11:01:28.319Z,100025.14
2022-09-15T11:04:28.461Z,100023.77
2022-09-15T11:07:00.118Z,100018.81
2022-09-15T11:09:38.424Z,100009.71
2022-09-15T11:12:32.605Z,100006.27
2022-09-15T11:15:15.632Z,100000.34
2022-09-15T11:17:53.323Z,99997.08
2022-09-15T11:20:31.226Z,99993.60
2022-09-15T11:23:02.985Z,99991.29
2022-09-15T11:25:48.056Z,99990.60
2022-09-15T11:28:39.072Z,99988.36
2022-09-15T11:31:21.703Z,99980.67
2022-09-15T11:33:56.303Z,99977.15
2022-09-15T11:36:44.080Z,99976.74
2022-09-15T11:39:30.193Z,99973.00
2022-09-15T11:42:02.301Z,99979.28
2022-09-15T11:44:36.726Z,99980.60
2022-09-15T11:47:05.307Z,99980.41
2022-09-15T11:49:55.810Z,99982.18
2022-09-15T11:52:36.505Z,99980.66
2022-09-15T11:55:23.452Z,99984.64
2022-09-15T11:57:55.041Z,99987.60
2022-09-15T12:00:23.832Z,99987.13
2022-09-15T12:03:06.099Z,99988.78
2022-09-15T12:05:45.706Z,99995.66
2022-09-15T12:08:41.297Z,99997.79
2022-09-15T12:11:19.317Z,100002.83
2022-09-15T12:13:48.711Z,100003.33
2022-09-15T12:16:19.059Z,99997.19
2022-09-15T12:18:53.141Z,99996.46
2022-09-15T12:21:54.596Z,99997.30
2022-09-15T12:24:34.222Z,99999.05
2022-09-15T12:27:03.235Z,99999.81
2022-09-15T12:29:42.016Z,99991.80
2022-09-15T12:32:25.490Z,99988.69
2022-09-15T12:35:30.632Z,99985.35
2022-09-15T12:38:01.163Z,99995.84
2022-09-15T12:40:35.335Z,100001.82
2022-09-15T12:43:19.118Z,100001.61
2022-09-15T12:46:01.403Z,100001.30
2022-09-15T12:48:36.734Z,100001.30
2022-09-15T12:51:10.783Z,100004.73
2022-09-15T12:54:04.867Z,100007.23
2022-09-15T12:56:35.281Z,100008.66
2022-09-15T12:59:14.934Z,100016.96
2022-09-15T13:01:50.853Z,100015.91
2022-09-15T13:04:43.977Z,100018.75
2022-09-15T13:07:15.709Z,100016.89
2022-09-15T13:10:13.894Z,100016.69
2022-09-15T13:12:52.998Z,100019.14
2022-09-15T13:15:25.735Z,100020.93
2022-09-15T13:17:55.922Z,100018.02
2022-09-15T13:20:31.059Z,100023.70
2022-09-15T13:23:02.209Z,100030.80
2022-09-15T13:25:31.632Z,100037.77
2022-09-15T13:28:02.828Z,100037.13
2022-09-15T13:30:40.799Z,100033.36
2022-09-15T13:39:43.795Z,100028.48
2022-09-15T13:42:28.767Z,100031.09
2022-09-15T13:45:29.599Z,100028.37
2022-09-15T13:48:15.289Z,100021.53
2022-09-15T13:50:58.099Z,100019.71
2022-09-15T13:53:43.156Z,100026.48
2022-09-15T13:56:24.637Z,100026.86
2022-09-15T13:59:00.999Z,100030.77
2022-09-15T14:01:39.092Z,100028.02
2022-09-15T14:04:13.857Z,100019.21
2022-09-15T14:06:46.336Z,100019.23
2022-09-15T14:09:27.530Z,100014.50
2022-09-15T14:11:59.813Z,100013.88
2022-09-15T14:14:28.468Z,100015.71
2022-09-15T14:16:57.640Z,100017.30
2022-09-15T14:19:37.633Z,100015.15
2022-09-15T14:22:18.901Z,100018.81
2022-09-15T14:24:48.460Z,100021.64
2022-09-15T14:27:23.820Z,100023.81
2022-09-15T14:29:58.025Z,100023.13
2022-09-15T14:32:29.097Z,100026.47
2022-09-15T14:35:01.494Z,100036.95
2022-09-15T14:37:35.207Z,100042.34
2022-09-15T14:40:19.710Z,100042.64
2022-09-15T14:42:48.437Z,100051.88
2022-09-15T14:48:16.496Z,100061.12
2022-09-15T14:50:54.528Z,100064.27
2022-09-15T14:53:25.982Z,100070.73
2022-09-15T14:56:08.924Z,100072.85
2022-09-15T14:58:57.660Z,100075.91
2022-09-15T15:01:35.359Z,100074.53
2022-09-15T15:04:41.731Z,100077.83
2022-09-15T15:07:25.978Z,100078.08
2022-09-15T15:10:04.710Z,100084.16
2022-09-15T15:12:44.138Z,100083.08
2022-09-15T15:15:15.506Z,100079.21
2022-09-15T15:17:54.948Z,100074.48
2022-09-15T15:20:27.585Z,100076.77
2022-09-15T15:23:13.808Z,100074.50
2022-09-15T15:25:43.312Z,100076.98
2022-09-15T15:28:35.141Z,100076.80
2022-09-15T15:31:13.765Z,100077.46
2022-09-15T15:33:53.728Z,100074.89
2022-09-15T15:36:24.509Z,100079.61
2022-09-15T15:38:59.559Z,100080.19
2022-09-15T15:41:31.235Z,100079.77
2022-09-15T15:44:09.960Z,100076.69
2022-09-15T15:46:54.424Z,100074.55
2022-09-15T15:49:31.876Z,100079.60
2022-09-15T15:52:02.107Z,100083.98
2022-09-15T15:54:34.814Z,100080.61
2022-09-15T15:57:28.348Z,100080.47
2022-09-15T15:59:58.880Z,100080.90
2022-09-15T16:02:28.009Z,100084.07
2022-09-15T16:04:56.698Z,100083.89
2022-09-15T16:07:31.074Z,100086.98
2022-09-15T16:10:02.875Z,100083.90
2022-09-15T16:12:34.709Z,100082.23
2022-09-15T16:15:12.085Z,100075.38
2022-09-15T16:17:45.891Z,100073.41
2022-09-15T16:20:17.181Z,100079.09
2022-09-15T16:22:46.072Z,100085.95
2022-09-15T16:25:42.918Z,100085.02
2022-09-15T16:28:11.762Z,100090.13
2022-09-15T16:30:40.503Z,100094.48
2022-09-15T16:33:14.390Z,100103.18
2022-09-15T16:35:51.590Z,100105.70
2022-09-15T16:38:21.885Z,100107.48
2022-09-15T16:40:51.523Z,100106.21
2022-09-15T16:43:22.062Z,100099.48
2022-09-15T16:45:52.238Z,100093.30
2022-09-15T16:48:21.479Z,100084.71
2022-09-15T16:51:16.843Z,100079.14
2022-09-15T16:53:40.558Z,100084.66
2022-09-15T16:56:13.954Z,100087.70
2022-09-15T16:58:44.280Z,100084.48
2022-09-15T17:01:22.504Z,100081.41
2022-09-15T17:03:51.181Z,100082.35
2022-09-15T17:06:21.392Z,100085.73
2022-09-15T17:08:50.087Z,100093.70
2022-09-15T17:11:21.082Z,100096.80
2022-09-15T17:13:49.918Z,100102.04
2022-09-15T17:16:20.340Z,100105.30
2022-09-15T17:18:49.336Z,100109.50
2022-09-15T17:21:19.435Z,100111.62
2022-09-15T17:23:50.399Z,100115.37
2022-09-15T17:26:24.666Z,100114.02
2022-09-15T17:28:56.676Z,100110.59
2022-09-15T17:31:25.653Z,100113.89
2022-09-15T17:33:54.669Z,100123.30
2022-09-15T17:36:23.659Z,100120.17
2022-09-15T17:38:52.448Z,100123.71
2022-09-15T17:41:23.150Z,100136.07
2022-09-15T17:43:53.336Z,100144.38
2022-09-15T17:46:22.126Z,100147.11
2022-09-15T17:48:51.094Z,100146.24
2022-09-15T17:51:19.878Z,100154.46
2022-09-15T17:53:48.459Z,100155.63
2022-09-15T17:56:17.247Z,100150.52
2022-09-15T17:58:46.344Z,100152.15
2022-09-15T18:01:16.097Z,100151.27
2022-09-15T18:03:45.462Z,100139.77
2022-09-15T18:06:14.759Z,100136.23
2022-09-15T18:08:43.616Z,100143.96
2022-09-15T18:11:15.635Z,100146.58
2022-09-15T18:13:44.275Z,100152.46
2022-09-15T18:16:14.550Z,100156.45
2022-09-15T18:18:43.511Z,100153.96
2022-09-15T18:21:25.414Z,100147.16
2022-09-15T18:23:54.105Z,100144.91
2022-09-15T18:26:26.289Z,100138.55
2022-09-15T18:28:56.394Z,100131.60
2022-09-15T18:31:25.562Z,100126.61
2022-09-15T18:33:54.767Z,100126.16
2022-09-15T18:36:23.369Z,100123.48
2022-09-15T18:38:52.079Z,100119.39
2022-09-15T18:41:21.256Z,100119.65
2022-09-15T18:43:49.885Z,100120.30
2022-09-15T18:46:18.809Z,100122.14
2022-09-15T18:48:48.339Z,100115.36
2022-09-15T18:51:24.143Z,100111.05
2022-09-15T18:53:58.005Z,100107.24
2022-09-15T18:56:27.099Z,100104.90
2022-09-15T18:58:56.501Z,100099.96
2022-09-15T19:01:25.604Z,100094.87
2022-09-15T19:03:54.656Z,100087.56
2022-09-15T19:06:23.379Z,100088.52
2022-09-15T19:08:52.452Z,100088.55
2022-09-15T19:11:21.465Z,100089.44
2022-09-15T19:13:53.463Z,100087.69
2022-09-15T19:16:22.977Z,100083.69
2022-09-15T19:18:57.086Z,100085.20
2022-09-15T19:21:27.454Z,100095.39
2022-09-15T19:23:58.291Z,100089.86
2022-09-15T19:26:29.763Z,100093.23
2022-09-15T19:28:58.861Z,100090.96
2022-09-15T19:31:27.912Z,100088.03
2022-09-15T19:33:57.667Z,100090.60
2022-09-15T19:36:28.730Z,100094.39
2022-09-15T19:39:00.545Z,100089.52
2022-09-15T19:41:31.517Z,100079.90
2022-09-15T19:44:02.847Z,100075.73
2022-09-15T19:46:31.963Z,100074.38
2022-09-15T19:49:03.286Z,100070.32
2022-09-15T19:51:31.890Z,100072.11
2022-09-15T19:54:01.088Z,100072.77
2022-09-15T19:56:31.389Z,100061.59
2022-09-15T19:59:00.308Z,100054.50
2022-09-15T20:01:31.285Z,100041.09
2022-09-15T20:04:02.195Z,100041.23
2022-09-15T20:06:32.766Z,100044.31
2022-09-15T20:09:02.511Z,100047.09
2022-09-15T20:11:31.945Z,100047.20
2022-09-15T20:14:01.851Z,100042.17
2022-09-15T20:16:30.845Z,100035.25
2022-09-15T20:18:59.631Z,100029.77
2022-09-15T20:21:49.253Z,100030.45
2022-09-15T20:24:20.047Z,100031.84
2022-09-15T20:26:48.931Z,100024.67
2022-09-15T20:29:18.450Z,100013.64
2022-09-15T20:31:47.965Z,100010.42
2022-09-15T20:34:19.070Z,100011.69
2022-09-15T20:36:47.675Z,100015.29
2022-09-15T20:39:19.229Z,100011.54
2022-09-15T20:41:47.972Z,100009.23
2022-09-15T20:44:17.115Z,100009.14
2022-09-15T20:46:45.603Z,100010.12
2022-09-15T20:49:16.228Z,100010.98
2022-09-15T20:51:45.630Z,100006.95
2022-09-15T20:54:15.032Z,100007.27
2022-09-15T20:56:43.722Z,100001.59
2022-09-15T20:59:14.665Z,99996.81
2022-09-15T21:01:43.981Z,99993.31
2022-09-15T21:04:12.856Z,99994.94
2022-09-15T21:06:41.640Z,99995.46
2022-09-15T21:09:10.432Z,99997.40
2022-09-15T21:11:40.042Z,100002.08
2022-09-15T21:14:10.985Z,100003.13
2022-09-15T21:16:39.825Z,100002.70
2022-09-15T21:19:12.919Z,100001.53
2022-09-15T21:21:41.540Z,99998.86
2022-09-15T21:24:10.129Z,99994.05
2022-09-15T21:27:01.872Z,99988.75
2022-09-15T21:29:31.670Z,99981.84
2022-09-15T21:32:00.418Z,99978.87
2022-09-15T21:34:29.398Z,99968.83
2022-09-15T21:36:58.340Z,99961.48
2022-09-15T21:39:27.036Z,99959.45
2022-09-15T21:41:55.813Z,99957.69
2022-09-15T21:44:24.399Z,99953.27
2022-09-15T21:46:53.393Z,99952.22
2022-09-15T21:49:22.284Z,99946.59
2022-09-15T21:51:51.285Z,99951.08
2022-09-15T21:54:19.966Z,99953.08
2022-09-15T21:56:48.648Z,99953.68
2022-09-15T21:59:18.624Z,99946.44
2022-09-15T22:01:47.484Z,99943.73
2022-09-15T22:04:16.253Z,99940.13
2022-09-15T22:06:47.286Z,99943.41
2022-09-15T22:09:18.821Z,99943.20
2022-09-15T22:11:48.345Z,99937.61
2022-09-15T22:14:18.570Z,99931.66
2022-09-15T22:16:47.521Z,99931.75
2022-09-15T22:19:16.662Z,99930.76
2022-09-15T22:21:45.839Z,99935.64
2022-09-15T22:24:15.157Z,99935.15
2022-09-15T22:26:44.282Z,99934.03
2022-09-15T22:29:12.942Z,99931.36
2022-09-15T22:31:42.374Z,99930.98
2022-09-15T22:34:11.239Z,99931.79
2022-09-15T22:36:40.029Z,99933.52
2022-09-15T22:39:09.048Z,99934.60
2022-09-15T22:41:39.538Z,99934.83
2022-09-15T22:44:18.380Z,99938.20
2022-09-15T22:46:47.367Z,99939.39
2022-09-15T22:49:16.177Z,99943.91
2022-09-15T22:51:46.483Z,99952.00
2022-09-15T22:54:15.473Z,99951.38
2022-09-15T22:56:43.961Z,99954.96
2022-09-15T22:59:14.076Z,99955.95
2022-09-15T23:01:43.093Z,99958.04
2022-09-15T23:04:11.657Z,99958.56
2022-09-15T23:06:40.442Z,99958.55
2022-09-15T23:09:10.819Z,99953.69
2022-09-15T23:11:40.684Z,99946.61
2022-09-15T23:14:18.249Z,99940.52
2022-09-15T23:16:47.076Z,99939.71
2022-09-15T23:19:16.187Z,99938.16
2022-09-15T23:21:45.778Z,99932.16
2022-09-15T23:24:15.431Z,99932.55
2022-09-15T23:26:44.073Z,99931.92
2022-09-15T23:29:12.763Z,99932.64
2022-09-15T23:31:41.870Z,99923.71
2022-09-15T23:34:10.639Z,99920.63
2022-09-15T23:36:39.227Z,99922.34
2022-09-15T23:39:07.840Z,99925.11
2022-09-15T23:41:37.057Z,99925.00
2022-09-15T23:44:06.002Z,99927.21
2022-09-15T23:46:35.019Z,99926.59
2022-09-15T23:49:03.680Z,99929.44
2022-09-15T23:51:32.264Z,99929.08
2022-09-15T23:54:02.493Z,99930.20
2022-09-15T23:56:32.404Z,99929.11
2022-09-15T23:59:01.296Z,99936.28
